Airfield :
LOGIN :

Register | Disclaimer

   EN    FR    IT 

 










Legend :    VFR   Marginal VFR   IFR   Intensive IFR   Very Intensive IFR
Visi :
Ceiling :
>= 8 km
>= 3000ft
5 to 8 km
1000 to 3000 ft
1500m to 5 km
500 to 1000 ft
800 to 1500m
200 to 500 ft
< 800m
< 200 ft
Symbols :   Thunderstorms  Fog  Heavy snow  Heavy precipitations  Wind > 20 kt
SIGMETs :     Misc.  Thunderstorms  Icing  Turbulence  Mountain Waves  Volcanic Ashes







- Airport Elevation : 915 ft
- IATA code : LUG


LSZA - Lugano

EXPIRED METARs :
  • 241420Z 19007KT 9000 FEW060 BKN200 32/21 Q1014 NOSIG
  • 241350Z 19007KT 150V230 9000 FEW060 BKN200 32/21 Q1014 NOSIG
  • 241320Z 20006KT 9000 FEW060 BKN200 32/22 Q1014 NOSIG
  • 241250Z 19008KT 9000 FEW060 BKN200 31/21 Q1015 NOSIG
  • 241220Z 19007KT 140V210 9999 FEW060 31/21 Q1015 NOSIG
  • 241150Z 20006KT CAVOK 32/22 Q1015 NOSIG

Expired Forecast.
ATIS : +41 22 417 40 88
No reported NOTAMs for that airfield.
1 SIGMET reported for the Switzerland FIR (LSAS) :
 
Severe turbulence
LSAS SIGMET 7 VALID 250550/250900 LSZH
LSAS SWITZERLAND FIR SEV TURB OBS ENTIRE FIR FL330/400 STNR NC=



MET'MAP, your aeronautical weather chart ! - Copyright ORBIFLY December 2007 - Disclaimer

ORBIFLY MET'MAP TEAM :

Programming & Development : Alexandra Zaïnal
Concept & Development : Baudouin d'Aumeries
Co-Development & Prog : Marc-Olivier Méhu
Technical & hardware support : Manuel Goepfert

Contact : metmap@orbifly.com




SOURCES & CREDITS :

   NOAA